createdAt,value
2022-08-17T00:00:56.319Z,43.14
2022-08-17T00:01:56.466Z,43.12
2022-08-17T00:02:56.334Z,43.22
2022-08-17T00:03:56.317Z,43.43
2022-08-17T00:04:56.354Z,43.43
2022-08-17T00:05:56.342Z,43.12
2022-08-17T00:06:56.347Z,43.12
2022-08-17T00:07:56.333Z,43.24
2022-08-17T00:08:56.339Z,43.24
2022-08-17T00:09:56.321Z,43.12
2022-08-17T00:10:56.314Z,43.12
2022-08-17T00:12:40.631Z,42.96
2022-08-17T00:12:56.612Z,43.38
2022-08-17T00:13:56.339Z,43.82
2022-08-17T00:14:56.332Z,43.92
2022-08-17T00:15:56.317Z,43.74
2022-08-17T00:16:57.368Z,43.66
2022-08-17T00:17:56.335Z,43.93
2022-08-17T00:19:06.352Z,44.15
2022-08-17T00:19:56.327Z,44.25
2022-08-17T00:20:56.324Z,44.29
2022-08-17T00:22:30.907Z,44.04
2022-08-17T00:22:56.330Z,44.54
2022-08-17T00:23:56.347Z,44.66
2022-08-17T00:24:56.320Z,44.66
2022-08-17T00:25:56.334Z,44.62
2022-08-17T00:26:56.341Z,44.83
2022-08-17T00:27:56.344Z,44.83
2022-08-17T00:28:56.331Z,44.8
2022-08-17T00:29:56.323Z,44.8
2022-08-17T00:30:56.337Z,44.8
2022-08-17T00:31:56.341Z,44.57
2022-08-17T00:33:14.211Z,44.57
2022-08-17T00:33:56.334Z,44.57
2022-08-17T00:34:56.323Z,44.23
2022-08-17T00:35:56.339Z,44.09
2022-08-17T00:36:56.334Z,44.44
2022-08-17T00:37:56.315Z,44.44
2022-08-17T00:38:56.351Z,45.25
2022-08-17T00:39:56.463Z,45.33
2022-08-17T00:40:58.974Z,45.33
2022-08-17T00:41:56.326Z,45.53
2022-08-17T00:42:56.320Z,45.51
2022-08-17T00:43:56.427Z,45.53
2022-08-17T00:44:56.321Z,45.58
2022-08-17T00:45:56.324Z,45.58
2022-08-17T00:46:56.350Z,45.75
2022-08-17T00:47:56.321Z,45.75
2022-08-17T00:48:56.320Z,45.87
2022-08-17T00:49:56.334Z,45.87
2022-08-17T00:50:56.327Z,45.88
2022-08-17T00:51:56.340Z,45.91
2022-08-17T00:52:56.329Z,45.87
2022-08-17T00:53:56.360Z,45.77
2022-08-17T00:54:56.335Z,45.78
2022-08-17T00:55:56.339Z,45.78
2022-08-17T00:56:56.356Z,45.78
2022-08-17T00:57:56.319Z,45.91
2022-08-17T00:58:56.340Z,46.02
2022-08-17T01:00:02.271Z,46.12
2022-08-17T01:00:56.367Z,46.12
2022-08-17T01:01:56.341Z,46.05
2022-08-17T01:02:56.444Z,45.97
2022-08-17T01:04:00.019Z,46.01
2022-08-17T01:04:56.331Z,46.09
2022-08-17T01:05:56.333Z,46.07
2022-08-17T01:06:56.330Z,46.07
2022-08-17T01:07:56.326Z,46.3
2022-08-17T01:08:57.664Z,46.24
2022-08-17T01:09:56.328Z,46.24
2022-08-17T01:10:57.296Z,45.87
2022-08-17T01:11:56.345Z,45.87
2022-08-17T01:12:56.344Z,46.14
2022-08-17T01:13:56.317Z,46.25
2022-08-17T01:14:56.319Z,46.25
2022-08-17T01:15:56.320Z,46.24
2022-08-17T01:16:56.329Z,46.14
2022-08-17T01:17:56.317Z,46.09
2022-08-17T01:18:56.324Z,46.15
2022-08-17T01:19:56.322Z,46.15
2022-08-17T01:20:56.328Z,46.11
2022-08-17T01:21:56.337Z,46.11
2022-08-17T01:22:56.309Z,45.73
2022-08-17T01:23:56.341Z,45.73
2022-08-17T01:24:56.342Z,45.73
2022-08-17T01:25:56.317Z,45.81
2022-08-17T01:26:56.713Z,45.76
2022-08-17T01:27:56.315Z,46
2022-08-17T01:28:56.315Z,46
2022-08-17T01:29:56.308Z,46.22
2022-08-17T01:30:59.034Z,46.14
2022-08-17T01:31:56.331Z,46.24
2022-08-17T01:32:56.316Z,46.26
2022-08-17T01:33:56.310Z,46.22
2022-08-17T01:34:56.314Z,46.63
2022-08-17T01:35:56.312Z,46.28
2022-08-17T01:36:56.346Z,46.15
2022-08-17T01:37:56.309Z,46.15
2022-08-17T01:38:56.337Z,46.11
2022-08-17T01:39:56.408Z,46.26
2022-08-17T01:40:57.764Z,46.51
2022-08-17T01:41:56.331Z,46.8
2022-08-17T01:42:56.309Z,46.83
2022-08-17T01:43:56.322Z,46.95
2022-08-17T01:44:56.314Z,47.02
2022-08-17T01:46:02.672Z,47.04
2022-08-17T01:46:56.324Z,47.08
2022-08-17T01:47:56.318Z,46.96
2022-08-17T01:48:56.334Z,46.75
2022-08-17T01:49:56.312Z,46.91
2022-08-17T01:50:56.313Z,47.29
2022-08-17T01:51:56.351Z,47.34
2022-08-17T01:52:56.313Z,47.43
2022-08-17T01:53:56.340Z,47.43
2022-08-17T01:54:56.318Z,47.55
2022-08-17T01:55:56.308Z,47.37
2022-08-17T01:56:56.339Z,47.37
2022-08-17T01:57:56.322Z,47.17
2022-08-17T01:58:56.319Z,47.3
2022-08-17T01:59:56.334Z,47.36
2022-08-17T02:01:00.814Z,47.36
2022-08-17T02:01:56.383Z,47.9
2022-08-17T02:02:56.329Z,47.9
2022-08-17T02:04:00.898Z,47.56
2022-08-17T02:04:56.324Z,47.56
2022-08-17T02:05:56.346Z,47.26
2022-08-17T02:06:56.351Z,46.85
2022-08-17T02:08:00.612Z,46.85
2022-08-17T02:09:01.844Z,47.02
2022-08-17T02:09:56.327Z,47.12
2022-08-17T02:10:56.327Z,47.19
2022-08-17T02:11:56.570Z,47.02
2022-08-17T02:12:56.314Z,46.82
2022-08-17T02:14:01.069Z,46.6
2022-08-17T02:14:56.329Z,46.6
2022-08-17T02:15:56.324Z,46.09
2022-08-17T02:16:56.333Z,45.89
2022-08-17T02:17:56.330Z,45.57
2022-08-17T02:18:56.328Z,45.57
2022-08-17T02:19:56.314Z,45.34
2022-08-17T02:20:56.330Z,45.34
2022-08-17T02:21:56.351Z,45.43
2022-08-17T02:22:56.335Z,45.43
2022-08-17T02:23:56.331Z,45.78
2022-08-17T02:25:00.058Z,45.78
2022-08-17T02:25:56.330Z,45.4
2022-08-17T02:26:56.348Z,45.57
2022-08-17T02:27:56.320Z,45.73
2022-08-17T02:28:56.317Z,45.7
2022-08-17T02:29:56.333Z,45.72
2022-08-17T02:31:00.746Z,45.72
2022-08-17T02:31:56.350Z,46.33
2022-08-17T02:32:56.322Z,46.31
2022-08-17T02:34:00.473Z,46.31
2022-08-17T02:34:56.326Z,46.38
2022-08-17T02:35:56.331Z,46.44
2022-08-17T02:36:56.345Z,46.47
2022-08-17T02:37:56.320Z,46.61
2022-08-17T02:38:56.343Z,46.9
2022-08-17T02:39:56.355Z,46.89
2022-08-17T02:40:56.331Z,46.69
2022-08-17T02:41:56.343Z,46.89
2022-08-17T02:42:56.330Z,47.06
2022-08-17T02:43:56.316Z,47.06
2022-08-17T02:44:56.327Z,47
2022-08-17T02:45:56.325Z,47
2022-08-17T02:46:56.333Z,46.92
2022-08-17T02:47:56.329Z,46.44
2022-08-17T02:48:56.317Z,46.44
2022-08-17T02:49:56.322Z,46.2
2022-08-17T02:50:56.324Z,46.08
2022-08-17T02:51:56.348Z,46.11
2022-08-17T02:53:01.990Z,46.74
2022-08-17T02:54:35.718Z,46.74
2022-08-17T02:54:56.334Z,46.54
2022-08-17T02:55:56.323Z,46.8
2022-08-17T02:56:56.329Z,47.03
2022-08-17T02:57:56.334Z,47.03
2022-08-17T02:58:56.343Z,47.03
2022-08-17T02:59:56.312Z,47.05
2022-08-17T03:00:56.312Z,47.05
2022-08-17T03:01:56.424Z,47.12
2022-08-17T03:02:56.316Z,46.86
2022-08-17T03:03:56.312Z,46.84
2022-08-17T03:04:56.316Z,46.66
2022-08-17T03:05:56.336Z,46.5
2022-08-17T03:06:56.340Z,45.73
2022-08-17T03:07:56.330Z,45.68
2022-08-17T03:08:56.336Z,45.43
2022-08-17T03:09:56.315Z,45.21
2022-08-17T03:10:56.318Z,45.03
2022-08-17T03:11:56.350Z,44.93
2022-08-17T03:12:56.312Z,44.93
2022-08-17T03:13:56.318Z,44.93
2022-08-17T03:14:56.328Z,45
2022-08-17T03:15:56.332Z,45.03
2022-08-17T03:16:56.331Z,44.78
2022-08-17T03:17:56.317Z,45.72
2022-08-17T03:18:56.332Z,46.17
2022-08-17T03:19:56.309Z,46.17
2022-08-17T03:20:56.317Z,46.97
2022-08-17T03:21:56.337Z,47.23
2022-08-17T03:23:01.999Z,47.23
2022-08-17T03:23:56.335Z,47.23
2022-08-17T03:24:56.333Z,47.18
2022-08-17T03:25:56.328Z,47.18
2022-08-17T03:26:56.333Z,47.04
2022-08-17T03:27:56.323Z,46.93
2022-08-17T03:28:56.350Z,46.9
2022-08-17T03:29:56.315Z,47.1
2022-08-17T03:30:56.337Z,47.1
2022-08-17T03:31:56.329Z,47.05
2022-08-17T03:32:56.321Z,47.11
2022-08-17T03:33:56.468Z,47.16
2022-08-17T03:34:56.311Z,47.28
2022-08-17T03:35:56.317Z,47.28
2022-08-17T03:36:56.344Z,47.28
2022-08-17T03:38:00.793Z,47.56
2022-08-17T03:38:56.362Z,47.56
2022-08-17T03:39:56.377Z,47.82
2022-08-17T03:40:59.769Z,47.97
2022-08-17T03:41:56.346Z,47.97
2022-08-17T03:42:56.329Z,48.18
2022-08-17T03:43:56.330Z,48.32
2022-08-17T03:44:56.985Z,48.36
2022-08-17T03:45:56.332Z,48.42
2022-08-17T03:46:56.347Z,48.4
2022-08-17T03:47:56.331Z,48.29
2022-08-17T03:48:56.337Z,48.35
2022-08-17T03:49:56.318Z,48.49
2022-08-17T03:50:56.325Z,48.47
2022-08-17T03:51:56.340Z,48.63
2022-08-17T03:52:56.412Z,48.53
2022-08-17T03:53:56.338Z,48.53
2022-08-17T03:54:56.339Z,48.51
2022-08-17T03:55:56.310Z,48.38
2022-08-17T03:56:56.329Z,48.38
2022-08-17T03:57:56.333Z,48.47
2022-08-17T03:58:56.326Z,48.27
2022-08-17T03:59:56.322Z,48.5
2022-08-17T04:00:56.311Z,48.5
2022-08-17T04:01:56.336Z,48.47
2022-08-17T04:02:56.322Z,48.51
2022-08-17T04:03:56.324Z,48.32
2022-08-17T04:04:56.318Z,48.32
2022-08-17T04:05:56.327Z,48.05
2022-08-17T04:06:56.337Z,48.05
2022-08-17T04:07:56.315Z,48.05
2022-08-17T04:08:56.344Z,47.77
2022-08-17T04:09:56.318Z,47.73
2022-08-17T04:10:56.310Z,47.73
2022-08-17T04:11:56.327Z,47.84
2022-08-17T04:12:56.333Z,48.18
2022-08-17T04:13:56.316Z,48.05
2022-08-17T04:14:56.317Z,48.05
2022-08-17T04:15:56.309Z,48.05
2022-08-17T04:16:56.346Z,48.27
2022-08-17T04:17:56.321Z,48.03
2022-08-17T04:18:56.388Z,48.18
2022-08-17T04:19:56.315Z,48.12
2022-08-17T04:20:56.317Z,48.13
2022-08-17T04:21:56.344Z,47.85
2022-08-17T04:22:56.309Z,47.56
2022-08-17T04:23:56.335Z,47.43
2022-08-17T04:24:56.311Z,47.14
2022-08-17T04:25:56.319Z,46.78
2022-08-17T04:26:56.348Z,46.63
2022-08-17T04:27:56.310Z,46.63
2022-08-17T04:28:56.310Z,46.16
2022-08-17T04:29:56.416Z,46.04
2022-08-17T04:30:56.345Z,46.04
2022-08-17T04:31:56.342Z,46.04
2022-08-17T04:33:04.215Z,45.87
2022-08-17T04:33:56.324Z,45.68
2022-08-17T04:34:56.335Z,45.68
2022-08-17T04:35:56.332Z,46.68
2022-08-17T04:36:56.339Z,46.54
2022-08-17T04:37:56.319Z,46.32
2022-08-17T04:38:58.214Z,46.27
2022-08-17T04:39:59.627Z,46.26
2022-08-17T04:40:56.319Z,46.45
2022-08-17T04:41:56.333Z,46.41
2022-08-17T04:43:00.833Z,46.45
2022-08-17T04:43:56.329Z,46.04
2022-08-17T04:44:56.316Z,45.84
2022-08-17T04:45:57.139Z,45.84
2022-08-17T04:46:56.331Z,45.66
2022-08-17T04:47:56.329Z,45.66
2022-08-17T04:48:56.331Z,45.76
2022-08-17T04:49:56.321Z,45.78
2022-08-17T04:50:56.338Z,45.78
2022-08-17T04:52:01.209Z,45.75
2022-08-17T04:52:56.770Z,45.86
2022-08-17T04:53:56.335Z,45.94
2022-08-17T04:54:56.337Z,46.32
2022-08-17T04:55:56.315Z,46.42
2022-08-17T04:56:56.339Z,46.4
2022-08-17T04:57:56.327Z,46.4
2022-08-17T04:58:56.330Z,46.13
2022-08-17T04:59:56.314Z,45.84
2022-08-17T05:00:56.390Z,45.54
2022-08-17T05:01:56.340Z,45.09
2022-08-17T05:02:56.533Z,45.1
2022-08-17T05:03:56.453Z,45.14
2022-08-17T05:04:56.321Z,45.14
2022-08-17T05:05:56.316Z,45.14
2022-08-17T05:06:56.343Z,44.86
2022-08-17T05:07:56.327Z,44.86
2022-08-17T05:08:56.328Z,44.86
2022-08-17T05:09:56.320Z,44.78
2022-08-17T05:10:56.340Z,45
2022-08-17T05:11:56.434Z,44.83
2022-08-17T05:12:56.320Z,44.86
2022-08-17T05:13:56.334Z,44.95
2022-08-17T05:14:56.322Z,44.95
2022-08-17T05:15:56.312Z,44.95
2022-08-17T05:16:56.345Z,44.68
2022-08-17T05:17:56.327Z,44.65
2022-08-17T05:18:56.328Z,44.65
2022-08-17T05:19:56.317Z,44.65
2022-08-17T05:20:56.333Z,44.55
2022-08-17T05:21:56.327Z,44.43
2022-08-17T05:22:56.327Z,44.2
2022-08-17T05:23:56.869Z,44.39
2022-08-17T05:24:56.311Z,44.39
2022-08-17T05:25:56.340Z,44.39
2022-08-17T05:26:56.326Z,44.46
2022-08-17T05:27:56.314Z,44.32
2022-08-17T05:28:57.293Z,44.21
2022-08-17T05:29:56.319Z,44.38
2022-08-17T05:30:56.311Z,44.47
2022-08-17T05:31:56.355Z,44.25
2022-08-17T05:32:56.312Z,44.02
2022-08-17T05:33:56.315Z,43.98
2022-08-17T05:34:56.372Z,44.08
2022-08-17T05:35:56.316Z,44.08
2022-08-17T05:36:56.346Z,44.43
2022-08-17T05:37:56.760Z,44.45
2022-08-17T05:38:56.348Z,44.83
2022-08-17T05:39:56.404Z,44.54
2022-08-17T05:40:56.320Z,44.76
2022-08-17T05:41:56.339Z,44.76
2022-08-17T05:42:56.331Z,44.76
2022-08-17T05:43:56.723Z,44.75
2022-08-17T05:44:56.321Z,44.77
2022-08-17T05:45:56.570Z,44.53
2022-08-17T05:46:56.326Z,44.43
2022-08-17T05:47:56.331Z,44.27
2022-08-17T05:48:56.317Z,44.43
2022-08-17T05:49:56.325Z,44.52
2022-08-17T05:50:56.318Z,44.6
2022-08-17T05:51:56.334Z,44.48
2022-08-17T05:52:56.337Z,44.48
2022-08-17T05:53:56.335Z,44.38
2022-08-17T05:54:56.341Z,44.13
2022-08-17T05:55:56.314Z,44.13
2022-08-17T05:56:56.357Z,43.82
2022-08-17T05:57:56.324Z,43.93
2022-08-17T05:58:56.335Z,43.98
2022-08-17T05:59:56.315Z,44.17
2022-08-17T06:00:56.395Z,44.07
2022-08-17T06:01:56.332Z,43.57
2022-08-17T06:02:56.322Z,43.57
2022-08-17T06:03:56.321Z,43.01
2022-08-17T06:04:56.326Z,42.89
2022-08-17T06:05:56.314Z,42.65
2022-08-17T06:06:56.358Z,42.41
2022-08-17T06:07:56.328Z,42.52
2022-08-17T06:08:56.334Z,42.98
2022-08-17T06:09:56.325Z,42.82
2022-08-17T06:10:56.317Z,42.64
2022-08-17T06:11:58.805Z,42.43
2022-08-17T06:12:56.323Z,42.43
2022-08-17T06:13:56.325Z,42.22
2022-08-17T06:14:56.326Z,42.41
2022-08-17T06:15:56.313Z,42.41
2022-08-17T06:16:56.348Z,42.99
2022-08-17T06:17:56.313Z,42.98
2022-08-17T06:18:56.325Z,42.9
2022-08-17T06:19:56.331Z,42.9
2022-08-17T06:20:56.315Z,42.9
2022-08-17T06:21:56.356Z,43.19
2022-08-17T06:22:56.348Z,43.29
2022-08-17T06:23:56.331Z,43.33
2022-08-17T06:24:56.314Z,43.33
2022-08-17T06:25:56.319Z,43.35
2022-08-17T06:26:56.329Z,43.42
2022-08-17T06:27:56.317Z,43.55
2022-08-17T06:28:56.314Z,43.56
2022-08-17T06:29:56.323Z,43.52
2022-08-17T06:30:59.238Z,43.63
2022-08-17T06:31:56.341Z,43.38
2022-08-17T06:32:56.317Z,43.33
2022-08-17T06:33:56.317Z,43.37
2022-08-17T06:34:56.314Z,43.28
2022-08-17T06:35:56.318Z,43.28
2022-08-17T06:36:56.346Z,43.16
2022-08-17T06:37:56.313Z,43.16
2022-08-17T06:38:56.344Z,43.16
2022-08-17T06:39:56.399Z,42.99
2022-08-17T06:40:56.318Z,43.2
2022-08-17T06:41:56.334Z,43.19
2022-08-17T06:43:05.370Z,43.07
2022-08-17T06:43:56.320Z,42.67
2022-08-17T06:44:56.313Z,42.58
2022-08-17T06:45:56.323Z,42.11
2022-08-17T06:46:56.335Z,42.11
2022-08-17T06:47:56.339Z,41.88
2022-08-17T06:48:56.331Z,41.59
2022-08-17T06:49:56.319Z,41.77
2022-08-17T06:50:56.337Z,41.2
2022-08-17T06:51:56.331Z,41.2
2022-08-17T06:52:56.460Z,40.39
2022-08-17T06:53:56.334Z,40.39
2022-08-17T06:54:56.333Z,40.65
2022-08-17T06:55:56.316Z,40.95
2022-08-17T06:56:56.347Z,41.11
2022-08-17T06:57:56.326Z,40.8
2022-08-17T06:58:56.324Z,40.64
2022-08-17T06:59:56.720Z,40.64
2022-08-17T07:00:58.753Z,39.42
2022-08-17T07:01:56.345Z,39.43
2022-08-17T07:02:56.327Z,39.43
2022-08-17T07:03:56.328Z,38.58
2022-08-17T07:04:56.322Z,38.58
2022-08-17T07:05:56.319Z,38.95
2022-08-17T07:06:56.348Z,38.95
2022-08-17T07:07:56.333Z,37.98
2022-08-17T07:08:56.343Z,38.15
2022-08-17T07:09:56.321Z,38.1
2022-08-17T07:10:56.351Z,37.98
2022-08-17T07:11:56.347Z,37.76
2022-08-17T07:12:56.319Z,37.76
2022-08-17T07:13:56.316Z,37.64
2022-08-17T07:14:56.341Z,37.79
2022-08-17T07:15:57.188Z,37.66
2022-08-17T07:16:56.338Z,37.61
2022-08-17T07:17:56.324Z,37.72
2022-08-17T07:18:56.320Z,37.86
2022-08-17T07:19:56.329Z,38.02
2022-08-17T07:20:56.322Z,37.21
2022-08-17T07:21:56.342Z,37.57
2022-08-17T07:22:59.982Z,36.88
2022-08-17T07:23:56.366Z,37.2
2022-08-17T07:24:56.330Z,36.75
2022-08-17T07:25:56.333Z,36.78
2022-08-17T07:26:56.337Z,36.78
2022-08-17T07:27:56.328Z,36.78
2022-08-17T07:28:56.326Z,36.97
2022-08-17T07:29:56.333Z,37.28
2022-08-17T07:30:56.315Z,37.28
2022-08-17T07:31:56.353Z,37.48
2022-08-17T07:32:56.314Z,37.36
2022-08-17T07:33:56.353Z,37.3
2022-08-17T07:34:56.309Z,36.94
2022-08-17T07:35:56.322Z,37.37
2022-08-17T07:36:56.342Z,37.39
2022-08-17T07:37:56.316Z,37.54
2022-08-17T07:38:56.336Z,37.52
2022-08-17T07:40:14.726Z,37.52
2022-08-17T07:40:56.317Z,37.52
2022-08-17T07:41:58.504Z,37.52
2022-08-17T07:42:56.324Z,37.52
2022-08-17T07:43:56.335Z,37.52
2022-08-17T07:44:56.325Z,37.52
2022-08-17T07:45:56.317Z,37.52
2022-08-17T07:46:56.359Z,37.52
2022-08-17T07:47:56.318Z,37.52
2022-08-17T07:48:56.360Z,37.52
2022-08-17T07:49:56.324Z,37.52
2022-08-17T07:50:56.325Z,37.52
2022-08-17T07:51:56.632Z,37.52
2022-08-17T07:52:56.329Z,37.52
2022-08-17T07:54:09.090Z,37.52
2022-08-17T07:54:56.314Z,37.52
2022-08-17T07:55:56.316Z,37.52
2022-08-17T07:56:56.349Z,37.52
2022-08-17T07:57:56.314Z,37.52
2022-08-17T07:58:56.326Z,37.52
2022-08-17T07:59:56.312Z,37.52
2022-08-17T08:00:56.311Z,37.52
2022-08-17T08:01:56.330Z,37.52
2022-08-17T08:02:56.337Z,37.52
2022-08-17T08:03:56.323Z,37.52
2022-08-17T08:05:01.044Z,37.52
2022-08-17T08:05:56.350Z,37.52
2022-08-17T08:06:56.326Z,37.52
2022-08-17T08:07:56.319Z,37.52
2022-08-17T08:08:56.348Z,37.52
2022-08-17T08:09:56.310Z,37.52
2022-08-17T08:10:56.325Z,37.52
2022-08-17T08:11:56.389Z,37.52
2022-08-17T08:12:56.324Z,37.52
2022-08-17T08:13:56.314Z,37.52
2022-08-17T08:14:56.320Z,37.52
2022-08-17T08:15:56.315Z,37.52
2022-08-17T08:16:56.336Z,37.52
2022-08-17T08:17:56.341Z,37.52
2022-08-17T08:18:57.350Z,37.52
2022-08-17T08:19:56.324Z,37.52
2022-08-17T08:20:56.326Z,37.52
2022-08-17T08:21:56.333Z,37.52
2022-08-17T08:22:56.327Z,37.52
2022-08-17T08:23:56.344Z,37.52
2022-08-17T08:24:56.326Z,37.52
2022-08-17T08:25:56.327Z,37.52
2022-08-17T08:26:56.335Z,37.52
2022-08-17T08:27:56.330Z,37.52
2022-08-17T08:28:56.343Z,37.52
2022-08-17T08:29:56.338Z,37.52
2022-08-17T08:30:56.319Z,37.52
2022-08-17T08:31:56.344Z,37.52
2022-08-17T08:32:57.593Z,37.52
2022-08-17T08:33:56.325Z,37.52
2022-08-17T08:35:02.501Z,37.52
2022-08-17T08:35:56.322Z,37.52
2022-08-17T08:37:14.376Z,37.52
2022-08-17T08:37:56.329Z,37.52
2022-08-17T08:38:56.334Z,37.52
2022-08-17T08:39:56.383Z,37.52
2022-08-17T08:40:56.315Z,37.52
2022-08-17T08:41:56.351Z,37.52
2022-08-17T08:42:56.313Z,37.52
2022-08-17T08:43:56.323Z,37.52
2022-08-17T08:45:03.897Z,37.52
2022-08-17T08:45:56.334Z,37.52
2022-08-17T08:46:56.344Z,37.52
2022-08-17T08:47:56.327Z,37.52
2022-08-17T08:48:58.467Z,37.52
2022-08-17T08:50:04.811Z,37.52
2022-08-17T08:50:56.327Z,37.52
2022-08-17T08:51:56.330Z,37.52
2022-08-17T08:52:56.316Z,37.52
2022-08-17T08:53:56.340Z,37.52
2022-08-17T08:54:56.320Z,37.52
2022-08-17T08:55:56.322Z,37.52
2022-08-17T08:57:22.184Z,37.52
2022-08-17T08:57:56.315Z,37.52
2022-08-17T08:58:56.312Z,37.52
2022-08-17T08:59:58.186Z,37.52
2022-08-17T09:00:56.313Z,37.52
2022-08-17T09:01:56.397Z,37.52
2022-08-17T09:02:56.321Z,37.52
2022-08-17T09:04:10.928Z,37.52
2022-08-17T09:05:14.045Z,37.52
2022-08-17T09:05:56.312Z,37.52
2022-08-17T09:06:56.348Z,37.52
2022-08-17T09:07:57.578Z,37.52
2022-08-17T09:08:56.331Z,37.52
2022-08-17T09:09:59.384Z,37.52
2022-08-17T09:10:56.331Z,37.52
2022-08-17T09:12:01.323Z,37.52
2022-08-17T09:12:56.322Z,37.52
2022-08-17T09:13:56.315Z,37.52
2022-08-17T09:14:56.324Z,37.52
2022-08-17T09:15:56.324Z,37.52
2022-08-17T09:16:56.334Z,37.52
2022-08-17T09:18:21.445Z,37.52
2022-08-17T09:19:03.034Z,37.52
2022-08-17T09:19:56.317Z,37.52
2022-08-17T09:20:56.330Z,37.52
2022-08-17T09:21:56.363Z,37.52
2022-08-17T09:22:56.322Z,37.52
2022-08-17T09:23:56.342Z,37.52
2022-08-17T09:24:56.330Z,37.52
2022-08-17T09:25:56.319Z,37.52
2022-08-17T09:26:56.338Z,37.52
2022-08-17T09:27:56.328Z,37.52
2022-08-17T09:28:56.331Z,37.52
2022-08-17T09:29:56.322Z,37.52
2022-08-17T09:30:56.323Z,37.52
2022-08-17T09:31:56.345Z,37.52
2022-08-17T09:32:56.347Z,37.52
2022-08-17T09:33:56.338Z,37.52
2022-08-17T09:34:56.312Z,37.52
2022-08-17T09:35:56.336Z,37.52
2022-08-17T09:36:56.339Z,37.52
2022-08-17T09:37:56.320Z,37.52
2022-08-17T09:38:56.334Z,37.52
2022-08-17T09:39:56.324Z,37.52
2022-08-17T09:40:56.315Z,37.52
2022-08-17T09:41:56.349Z,37.52
2022-08-17T09:42:56.317Z,37.52
2022-08-17T09:43:56.317Z,37.52
2022-08-17T09:44:56.315Z,37.52
2022-08-17T09:45:56.315Z,37.52
2022-08-17T09:46:56.353Z,37.52
2022-08-17T09:47:56.315Z,37.52
2022-08-17T09:48:56.317Z,37.52
2022-08-17T09:49:56.325Z,37.52
2022-08-17T09:51:05.843Z,37.52
2022-08-17T09:51:56.324Z,37.52
2022-08-17T09:52:56.310Z,37.52
2022-08-17T09:54:05.287Z,37.52
2022-08-17T09:54:56.314Z,37.52
2022-08-17T09:55:56.339Z,37.52
2022-08-17T09:57:11.754Z,37.52
2022-08-17T09:57:56.334Z,37.52
2022-08-17T09:58:56.339Z,37.52
2022-08-17T09:59:56.335Z,37.52
2022-08-17T10:00:56.334Z,37.52
2022-08-17T10:01:56.336Z,37.52
2022-08-17T10:02:56.336Z,37.52
2022-08-17T10:03:56.331Z,37.52
2022-08-17T10:04:56.332Z,37.52
2022-08-17T10:05:57.016Z,37.52
2022-08-17T10:06:56.340Z,37.52
2022-08-17T10:07:56.375Z,37.52
2022-08-17T10:08:56.347Z,37.52
2022-08-17T10:09:56.326Z,37.52
2022-08-17T10:10:56.958Z,37.52
2022-08-17T10:11:56.333Z,37.52
2022-08-17T10:12:56.322Z,37.52
2022-08-17T10:13:56.328Z,37.52
2022-08-17T10:14:56.333Z,37.52
2022-08-17T10:15:56.315Z,37.52
2022-08-17T10:16:56.340Z,37.52
2022-08-17T10:17:56.328Z,37.52
2022-08-17T10:18:56.340Z,37.52
2022-08-17T10:19:56.328Z,37.52
2022-08-17T10:20:56.309Z,37.52
2022-08-17T10:22:00.682Z,37.52
2022-08-17T10:22:56.344Z,37.52
2022-08-17T10:23:56.345Z,37.52
2022-08-17T10:25:21.682Z,37.52
2022-08-17T10:25:56.315Z,37.52
2022-08-17T10:26:57.422Z,37.52
2022-08-17T10:27:56.310Z,37.52
2022-08-17T10:28:56.313Z,37.52
2022-08-17T10:29:56.314Z,37.52
2022-08-17T10:31:16.602Z,37.52
2022-08-17T10:31:56.349Z,37.52
2022-08-17T10:32:56.310Z,37.52
2022-08-17T10:33:56.319Z,37.52
2022-08-17T10:34:56.325Z,37.52
2022-08-17T10:35:57.117Z,37.52
2022-08-17T10:36:56.341Z,37.52
2022-08-17T10:37:56.325Z,37.52
2022-08-17T10:38:56.343Z,37.52
2022-08-17T10:39:56.462Z,37.52
2022-08-17T10:40:56.326Z,37.52
2022-08-17T10:41:56.333Z,37.52
2022-08-17T10:42:56.332Z,37.52
2022-08-17T10:44:36.735Z,37.52
2022-08-17T10:44:56.335Z,37.52
2022-08-17T10:46:10.363Z,37.52
2022-08-17T10:46:56.353Z,37.52
2022-08-17T10:47:59.035Z,37.52
2022-08-17T10:48:56.324Z,37.52
2022-08-17T10:49:56.321Z,37.52
2022-08-17T10:50:56.332Z,37.52
2022-08-17T10:51:56.339Z,37.52
2022-08-17T10:52:56.315Z,37.52
2022-08-17T10:53:56.341Z,37.52
2022-08-17T10:54:57.907Z,37.52
2022-08-17T10:55:56.325Z,37.52
2022-08-17T10:56:56.338Z,37.52
2022-08-17T10:57:56.321Z,37.52
2022-08-17T10:58:56.326Z,37.52
2022-08-17T10:59:56.326Z,37.52
2022-08-17T11:00:56.425Z,37.52
2022-08-17T11:01:56.347Z,37.52
2022-08-17T11:02:56.332Z,37.52
2022-08-17T11:03:56.344Z,37.52
2022-08-17T11:04:56.317Z,37.52
2022-08-17T11:05:56.327Z,37.52
2022-08-17T11:06:56.340Z,37.52
2022-08-17T11:07:56.355Z,37.52
2022-08-17T11:08:56.340Z,37.52
2022-08-17T11:10:02.555Z,37.52
2022-08-17T11:11:00.771Z,37.52
2022-08-17T11:12:00.796Z,37.52
2022-08-17T11:13:00.761Z,37.52
2022-08-17T11:14:00.753Z,37.52
2022-08-17T11:15:00.755Z,37.52
2022-08-17T11:16:06.149Z,37.52
2022-08-17T11:17:00.778Z,37.52
2022-08-17T11:18:00.751Z,37.52
2022-08-17T11:19:00.751Z,37.52
2022-08-17T11:20:00.748Z,37.52
2022-08-17T11:21:00.744Z,37.52
2022-08-17T11:22:00.759Z,37.52
2022-08-17T11:23:00.745Z,37.52
2022-08-17T11:24:00.757Z,37.52
2022-08-17T11:25:00.764Z,37.52
2022-08-17T11:26:00.750Z,37.52
2022-08-17T11:27:00.777Z,37.52
2022-08-17T11:28:00.753Z,37.52
2022-08-17T11:29:00.736Z,37.52
2022-08-17T11:30:01.943Z,37.52
2022-08-17T11:31:00.783Z,37.52
2022-08-17T11:32:00.747Z,37.52
2022-08-17T11:33:00.735Z,37.52
2022-08-17T11:34:00.753Z,37.52
2022-08-17T11:35:00.742Z,37.52
2022-08-17T11:36:00.761Z,37.52
2022-08-17T11:37:00.765Z,37.52
2022-08-17T11:38:00.743Z,37.52
2022-08-17T11:39:00.754Z,37.52
2022-08-17T11:40:00.756Z,37.52
2022-08-17T11:41:00.756Z,37.52
2022-08-17T11:42:00.773Z,37.52
2022-08-17T11:43:00.807Z,37.52
2022-08-17T11:44:01.898Z,37.52
2022-08-17T11:45:00.748Z,37.52
2022-08-17T11:46:00.732Z,37.52
2022-08-17T11:47:00.784Z,37.52
2022-08-17T11:48:26.527Z,37.52
2022-08-17T11:49:00.751Z,37.52
2022-08-17T11:50:00.771Z,37.52
2022-08-17T11:51:00.759Z,37.52
2022-08-17T11:52:01.027Z,37.52
2022-08-17T11:53:00.739Z,37.52
2022-08-17T11:54:30.559Z,37.52
2022-08-17T11:55:31.484Z,37.52
2022-08-17T11:56:00.747Z,37.52
2022-08-17T11:57:00.744Z,37.52
2022-08-17T11:58:00.746Z,37.52
2022-08-17T11:59:00.738Z,37.52
2022-08-17T12:00:00.737Z,37.52
2022-08-17T12:01:00.739Z,37.52
2022-08-17T12:02:00.750Z,37.52
2022-08-17T12:03:00.730Z,37.52
2022-08-17T12:04:00.787Z,37.52
2022-08-17T12:05:00.736Z,37.52
2022-08-17T12:06:00.737Z,37.52
2022-08-17T12:07:00.750Z,37.52
2022-08-17T12:08:00.738Z,37.52
2022-08-17T12:09:00.769Z,37.52
2022-08-17T12:10:00.759Z,37.52
2022-08-17T12:11:00.743Z,37.52
2022-08-17T12:12:12.626Z,37.52
2022-08-17T12:13:00.741Z,37.52
2022-08-17T12:14:00.731Z,37.52
2022-08-17T12:15:11.094Z,37.52
2022-08-17T12:16:00.733Z,37.52
2022-08-17T12:17:00.761Z,37.52
2022-08-17T12:18:00.743Z,37.52
2022-08-17T12:19:00.733Z,37.52
2022-08-17T12:20:00.743Z,37.52
2022-08-17T12:21:00.735Z,37.52
2022-08-17T12:22:00.742Z,37.52
2022-08-17T12:23:00.732Z,37.52
2022-08-17T12:24:00.774Z,37.52
2022-08-17T12:25:00.734Z,37.52
2022-08-17T12:26:00.732Z,37.52
2022-08-17T12:27:00.748Z,37.52
2022-08-17T12:28:06.648Z,37.52
2022-08-17T12:29:01.137Z,37.52
2022-08-17T12:30:00.752Z,37.52
2022-08-17T12:31:00.753Z,37.52
2022-08-17T12:32:00.751Z,37.52
2022-08-17T12:33:00.729Z,37.52
2022-08-17T12:34:00.754Z,37.52
2022-08-17T12:35:00.783Z,37.52
2022-08-17T12:36:00.757Z,37.52
2022-08-17T12:37:00.764Z,37.52
2022-08-17T12:38:00.729Z,37.52
2022-08-17T12:39:14.154Z,37.52
2022-08-17T12:40:00.807Z,37.52
2022-08-17T12:41:00.759Z,37.52
2022-08-17T12:42:02.608Z,37.52
2022-08-17T12:43:00.736Z,37.52
2022-08-17T12:44:00.745Z,37.52
2022-08-17T12:45:00.743Z,37.52
2022-08-17T12:46:00.758Z,37.52
2022-08-17T12:47:00.750Z,37.52
2022-08-17T12:48:00.731Z,37.52
2022-08-17T12:49:00.733Z,37.52
2022-08-17T12:50:00.730Z,37.52
2022-08-17T12:51:00.747Z,37.52
2022-08-17T12:52:00.745Z,37.52
2022-08-17T12:53:02.577Z,37.52
2022-08-17T12:54:00.750Z,37.52
2022-08-17T12:55:00.744Z,37.52